Terminal Aerodrome Forecast
Issued by NWS Mt. Holly, NJ

Home | Current Version | Previous Version | Text Only | Print | Product List | Glossary On
Versions: 1 2 3 4 5 6 7 8 9 10 11 12 13 14 15 16 17 18 19 20 21 22 23 24 25 26
792
FTUS41 KPHI 282053 AAB
TAFPHL
TAF AMD
KPHL 282053Z 2821/2924 08012G22KT P6SM VCSH FEW022 BKN027
      TEMPO 2821/2822 6SM -SHRA BKN015 OVC025
     FM282200 08012G20KT 6SM -DZ OVC015
     FM290100 07014G22KT 6SM -DZ OVC009
     FM290300 07016G22KT 5SM -RADZ BKN007 OVC020
     FM291400 08015G27KT 6SM -RADZ OVC012=

USA.gov is the U.S. government's official web portal to all federal, state and local government web resources and services.